Time;durP1;ratioP1;P1;durP2;ratioP2;P2;SDS_P1;SDS_P2;PMS_P1;PMS_P2;Temp;Humidity;BMP_temperature;BMP_pressure;BME280_temperature;BME280_humidity;BME280_pressure;Samples;Min_cycle;Max_cycle;Signal;HPM_P1;HPM_P2
2023/11/05 00:01:06;;;;;;;27.30;11.55;;;9.80;99.90;;;;;;6255155;28;20071;-85
2023/11/05 00:04:08;;;;;;;29.55;14.63;;;9.90;99.90;;;;;;6248098;28;20508;-88
2023/11/05 00:07:09;;;;;;;49.15;22.45;;;9.90;99.90;;;;;;6253339;28;20057;-87
2023/11/05 00:10:11;;;;;;;43.85;21.60;;;9.90;99.90;;;;;;6252521;28;20408;-86
2023/11/05 00:13:13;;;;;;;44.35;21.45;;;10.00;99.90;;;;;;6252799;28;20119;-85
2023/11/05 00:16:15;;;;;;;50.38;21.95;;;10.00;99.90;;;;;;6267066;28;20057;-86
2023/11/05 00:19:16;;;;;;;44.65;20.77;;;10.10;99.90;;;;;;6242265;28;20045;-82
2023/11/05 00:22:18;;;;;;;43.60;21.08;;;10.00;99.90;;;;;;6269076;28;20124;-82
2023/11/05 00:25:20;;;;;;;44.63;21.35;;;10.00;99.90;;;;;;6276463;28;20049;-85
2023/11/05 00:28:22;;;;;;;43.72;18.52;;;10.00;99.90;;;;;;6283127;28;20049;-81
2023/11/05 00:31:24;;;;;;;45.70;18.75;;;10.00;99.90;;;;;;6292696;28;20045;-87
2023/11/05 00:34:25;;;;;;;37.00;17.83;;;10.00;99.90;;;;;;6256316;28;20085;-87
2023/11/05 00:37:27;;;;;;;44.80;17.27;;;10.10;99.90;;;;;;6266108;28;20046;-87
2023/11/05 00:40:29;;;;;;;37.85;16.92;;;10.00;99.90;;;;;;6278790;28;20056;-88
2023/11/05 00:43:31;;;;;;;34.70;16.48;;;10.00;99.90;;;;;;6258056;28;20045;-83
2023/11/05 00:46:32;;;;;;;36.50;16.13;;;10.00;99.90;;;;;;6277187;28;20504;-87
2023/11/05 00:49:34;;;;;;;35.67;17.27;;;10.00;99.90;;;;;;6275612;28;20160;-86
2023/11/05 00:52:36;;;;;;;41.42;18.08;;;10.00;99.90;;;;;;6276075;28;20056;-86
2023/11/05 00:55:37;;;;;;;42.45;17.70;;;10.10;99.90;;;;;;6274136;28;20057;-86
2023/11/05 00:58:39;;;;;;;39.35;17.35;;;10.00;99.90;;;;;;6268211;28;20582;-87
2023/11/05 01:01:41;;;;;;;41.38;18.33;;;10.10;99.90;;;;;;6254646;28;20044;-83
2023/11/05 01:04:43;;;;;;;40.10;18.90;;;10.10;99.90;;;;;;6254093;28;20083;-83
2023/11/05 01:07:45;;;;;;;43.38;19.75;;;10.00;99.90;;;;;;6271906;28;20052;-83
2023/11/05 01:10:47;;;;;;;46.45;20.90;;;10.00;99.90;;;;;;6271832;28;20049;-83
2023/11/05 01:13:48;;;;;;;47.40;21.08;;;10.00;99.90;;;;;;6267574;28;20119;-84
2023/11/05 01:16:50;;;;;;;45.08;21.02;;;10.10;99.90;;;;;;6253611;28;20083;-83
2023/11/05 01:19:52;;;;;;;50.88;21.95;;;10.10;99.90;;;;;;6270777;28;20065;-83
2023/11/05 01:22:53;;;;;;;40.17;19.23;;;10.00;99.90;;;;;;6253413;28;20064;-84
2023/11/05 01:25:55;;;;;;;38.33;18.95;;;10.10;99.90;;;;;;6253223;28;20135;-82
2023/11/05 01:28:57;;;;;;;42.03;19.98;;;10.00;99.90;;;;;;6247368;28;20048;-82
2023/11/05 01:31:58;;;;;;;45.38;19.30;;;10.00;99.90;;;;;;6272070;28;20144;-83
2023/11/05 01:35:00;;;;;;;42.90;19.20;;;9.90;99.90;;;;;;6271644;28;20187;-83
2023/11/05 01:38:02;;;;;;;44.80;18.80;;;9.80;99.90;;;;;;6252230;28;20048;-84
2023/11/05 01:41:04;;;;;;;38.90;18.02;;;9.70;99.90;;;;;;6271680;28;20455;-83
2023/11/05 01:44:05;;;;;;;41.20;18.27;;;9.80;99.90;;;;;;6268453;28;20427;-84
2023/11/05 01:47:08;;;;;;;40.63;18.88;;;9.70;99.90;;;;;;6272030;28;20053;-83
2023/11/05 01:50:10;;;;;;;45.63;18.45;;;9.60;99.90;;;;;;6271077;28;20131;-86
2023/11/05 01:53:12;;;;;;;53.38;20.02;;;9.60;99.90;;;;;;6254576;28;20049;-88
2023/11/05 01:56:14;;;;;;;59.75;20.48;;;9.50;99.90;;;;;;6269398;28;20412;-84
2023/11/05 01:59:15;;;;;;;60.38;20.58;;;9.40;99.90;;;;;;6267781;28;20048;-85
2023/11/05 02:02:17;;;;;;;46.70;21.55;;;9.30;99.90;;;;;;6271651;28;20059;-87
2023/11/05 02:05:19;;;;;;;44.58;20.65;;;9.20;99.90;;;;;;6254084;28;20049;-87
2023/11/05 02:08:21;;;;;;;45.97;20.50;;;9.20;99.90;;;;;;6271140;28;20064;-83
2023/11/05 02:11:23;;;;;;;45.13;18.83;;;9.30;99.90;;;;;;6272732;28;20049;-82
2023/11/05 02:14:24;;;;;;;41.80;18.40;;;9.60;99.90;;;;;;6275525;28;20052;-82
2023/11/05 02:17:26;;;;;;;39.85;17.27;;;9.40;99.90;;;;;;6279209;28;20068;-84
2023/11/05 02:20:27;;;;;;;39.05;17.42;;;9.50;99.90;;;;;;6270240;28;20049;-85
2023/11/05 02:23:30;;;;;;;39.83;17.05;;;9.50;99.90;;;;;;6252624;28;20468;-83
2023/11/05 02:26:31;;;;;;;41.17;17.30;;;9.50;99.90;;;;;;6269920;28;20049;-84
2023/11/05 02:29:33;;;;;;;44.80;18.38;;;9.50;99.90;;;;;;6265906;28;20053;-82
2023/11/05 02:32:34;;;;;;;42.25;18.73;;;9.60;99.90;;;;;;6251946;28;20516;-82
2023/11/05 02:35:36;;;;;;;42.25;17.17;;;9.60;99.90;;;;;;6269789;28;20053;-85
2023/11/05 02:38:38;;;;;;;38.28;17.70;;;9.60;99.90;;;;;;6251757;28;20710;-84
2023/11/05 02:41:39;;;;;;;42.58;18.40;;;9.50;99.90;;;;;;6269093;28;20065;-84
2023/11/05 02:44:41;;;;;;;43.40;17.52;;;9.60;99.90;;;;;;6266722;28;20830;-82
2023/11/05 02:47:43;;;;;;;40.17;18.08;;;9.60;99.90;;;;;;6269163;28;20057;-83
2023/11/05 02:50:45;;;;;;;42.97;17.92;;;9.60;99.90;;;;;;6251333;28;20060;-84
2023/11/05 02:53:46;;;;;;;39.30;17.25;;;9.50;99.90;;;;;;6269023;28;20048;-84
2023/11/05 02:56:48;;;;;;;41.65;17.75;;;9.60;99.90;;;;;;6267068;28;20060;-86
2023/11/05 02:59:50;;;;;;;40.10;16.73;;;9.60;99.90;;;;;;6262939;28;20595;-87
2023/11/05 03:02:51;;;;;;;40.45;15.60;;;9.50;99.90;;;;;;6268997;28;20060;-83
2023/11/05 03:05:53;;;;;;;36.58;15.63;;;9.50;99.90;;;;;;6267746;28;20522;-82
2023/11/05 03:08:55;;;;;;;35.80;14.18;;;9.60;99.90;;;;;;6268427;28;20088;-82
2023/11/05 03:11:56;;;;;;;34.97;14.95;;;9.50;99.90;;;;;;6250900;28;20048;-82
2023/11/05 03:14:58;;;;;;;33.78;14.82;;;9.40;99.90;;;;;;6262931;28;20049;-82
2023/11/05 03:18:00;;;;;;;38.67;14.60;;;9.40;99.90;;;;;;6251414;28;20052;-83
2023/11/05 03:21:02;;;;;;;38.63;14.95;;;9.40;99.90;;;;;;6268711;28;20057;-82
2023/11/05 03:24:03;;;;;;;36.03;14.13;;;9.40;99.90;;;;;;6268876;28;20409;-84
2023/11/05 03:27:07;;;;;;;32.88;13.10;;;9.40;99.90;;;;;;6269023;28;20053;-82
2023/11/05 03:30:09;;;;;;;37.45;14.35;;;9.40;99.90;;;;;;6247851;28;20053;-85
2023/11/05 03:33:10;;;;;;;34.72;13.02;;;9.40;99.90;;;;;;6250987;28;20059;-84
2023/11/05 03:36:12;;;;;;;34.15;13.75;;;9.40;99.90;;;;;;6269313;28;20052;-85
2023/11/05 03:39:14;;;;;;;33.40;13.55;;;9.40;99.90;;;;;;6268730;28;20056;-82
2023/11/05 03:42:16;;;;;;;25.77;12.88;;;9.50;99.90;;;;;;6251470;28;20220;-86
2023/11/05 03:45:18;;;;;;;37.72;14.15;;;9.50;99.90;;;;;;6249761;28;20063;-86
2023/11/05 03:48:19;;;;;;;32.10;13.02;;;9.40;99.90;;;;;;6251304;28;20053;-85
2023/11/05 03:51:21;;;;;;;33.92;13.80;;;9.50;99.90;;;;;;6251421;28;20064;-85
2023/11/05 03:54:23;;;;;;;34.65;13.48;;;9.40;99.90;;;;;;6251661;28;20049;-85
2023/11/05 03:57:24;;;;;;;30.10;12.57;;;9.50;99.90;;;;;;6269208;28;20068;-86
2023/11/05 04:00:26;;;;;;;36.40;13.55;;;9.40;99.90;;;;;;6265741;28;20338;-86
2023/11/05 04:03:27;;;;;;;34.45;14.05;;;9.40;99.90;;;;;;6251089;28;20049;-85
2023/11/05 04:06:29;;;;;;;35.42;14.25;;;9.30;99.90;;;;;;6249334;28;20076;-84
2023/11/05 04:09:31;;;;;;;36.70;13.35;;;9.30;99.90;;;;;;6267422;28;20048;-86
2023/11/05 04:12:34;;;;;;;36.53;14.20;;;9.30;99.90;;;;;;6254384;28;20049;-86
2023/11/05 04:15:36;;;;;;;34.70;13.18;;;9.30;99.90;;;;;;6270995;28;20061;-83
2023/11/05 04:18:37;;;;;;;32.53;12.80;;;9.30;99.90;;;;;;6273418;28;20048;-84
2023/11/05 04:21:39;;;;;;;33.97;13.73;;;9.30;99.90;;;;;;6255068;28;20053;-85
2023/11/05 04:24:40;;;;;;;34.78;13.68;;;9.20;99.90;;;;;;6273811;28;20048;-82
2023/11/05 04:27:42;;;;;;;36.63;14.07;;;9.30;99.90;;;;;;6273558;28;20060;-85
2023/11/05 04:30:44;;;;;;;29.45;13.27;;;9.20;99.90;;;;;;6273455;28;20440;-89
2023/11/05 04:33:45;;;;;;;33.70;13.48;;;9.20;99.90;;;;;;6256997;28;20412;-85
2023/11/05 04:36:47;;;;;;;35.13;13.77;;;9.20;99.90;;;;;;6274179;28;20064;-84
2023/11/05 04:39:49;;;;;;;40.50;13.82;;;9.20;99.90;;;;;;6273583;28;20045;-87
2023/11/05 04:42:50;;;;;;;33.05;13.80;;;9.20;99.90;;;;;;6256292;28;20081;-86
2023/11/05 04:45:52;;;;;;;37.20;14.50;;;9.20;99.90;;;;;;6254224;28;20099;-86
2023/11/05 04:48:53;;;;;;;36.30;14.48;;;9.20;99.90;;;;;;6263922;28;20049;-84
2023/11/05 04:51:55;;;;;;;35.75;13.82;;;9.10;99.90;;;;;;6273591;28;20813;-86
2023/11/05 04:54:59;;;;;;;35.00;14.15;;;9.10;99.90;;;;;;6273813;28;20053;-86
2023/11/05 04:58:00;;;;;;;34.30;15.25;;;9.10;99.90;;;;;;6256001;28;20068;-85
2023/11/05 05:01:03;;;;;;;37.42;14.70;;;9.10;99.90;;;;;;6270079;28;20049;-85
2023/11/05 05:04:05;;;;;;;32.78;14.77;;;9.10;99.90;;;;;;6256781;28;20131;-86
2023/11/05 05:07:07;;;;;;;33.05;14.90;;;9.10;99.90;;;;;;6271619;28;20060;-84
2023/11/05 05:10:08;;;;;;;31.58;14.38;;;9.10;99.90;;;;;;6255408;28;20048;-84
2023/11/05 05:13:10;;;;;;;33.97;14.00;;;9.10;99.90;;;;;;6255261;28;20145;-86
2023/11/05 05:16:12;;;;;;;33.42;14.82;;;9.10;99.90;;;;;;6253331;28;20052;-84
2023/11/05 05:19:14;;;;;;;36.63;15.45;;;9.10;99.90;;;;;;6233417;28;20049;-85
2023/11/05 05:22:16;;;;;;;31.02;13.82;;;9.20;99.90;;;;;;6254719;28;20056;-86
2023/11/05 05:25:17;;;;;;;32.53;14.73;;;9.10;99.90;;;;;;6273202;28;20107;-85
2023/11/05 05:28:19;;;;;;;33.65;14.93;;;9.10;99.90;;;;;;6271295;28;20575;-83
2023/11/05 05:31:21;;;;;;;37.42;15.38;;;9.10;99.90;;;;;;6255435;28;20049;-84
2023/11/05 05:34:23;;;;;;;33.38;15.50;;;9.10;99.90;;;;;;6253286;28;20087;-85
2023/11/05 05:37:24;;;;;;;41.00;16.23;;;9.10;99.90;;;;;;6271549;28;20068;-87
2023/11/05 05:40:26;;;;;;;36.75;15.63;;;9.10;99.90;;;;;;6257416;28;20745;-82
2023/11/05 05:43:28;;;;;;;36.80;15.60;;;9.10;99.90;;;;;;6252677;28;20037;-85
2023/11/05 05:46:29;;;;;;;38.85;17.25;;;9.10;99.90;;;;;;6255516;28;20137;-85
2023/11/05 05:49:31;;;;;;;40.38;17.20;;;9.10;99.90;;;;;;6272455;28;20661;-83
2023/11/05 05:52:33;;;;;;;38.20;16.70;;;9.20;99.90;;;;;;6273472;28;20048;-86
2023/11/05 05:55:35;;;;;;;38.72;15.57;;;9.10;99.90;;;;;;6271960;28;20484;-86
2023/11/05 05:58:37;;;;;;;36.38;16.63;;;9.30;99.90;;;;;;6252738;28;20041;-87
2023/11/05 06:01:38;;;;;;;39.42;17.08;;;9.10;99.90;;;;;;6255082;28;20190;-88
2023/11/05 06:04:40;;;;;;;35.35;16.40;;;9.10;99.90;;;;;;6255856;28;20057;-87
2023/11/05 06:07:42;;;;;;;31.35;15.52;;;9.10;99.90;;;;;;6254311;28;20049;-86
2023/11/05 06:10:44;;;;;;;32.65;15.07;;;9.10;99.90;;;;;;6273555;28;20053;-86
2023/11/05 06:13:45;;;;;;;32.03;15.10;;;9.10;99.90;;;;;;6252189;28;20124;-88
2023/11/05 06:16:47;;;;;;;30.60;14.35;;;9.10;99.90;;;;;;6254920;28;20052;-85
2023/11/05 06:19:48;;;;;;;31.95;15.25;;;9.10;99.90;;;;;;6255669;28;20523;-87
2023/11/05 06:22:50;;;;;;;31.17;13.82;;;9.10;99.90;;;;;;6255007;28;20518;-85
2023/11/05 06:25:52;;;;;;;31.23;13.68;;;9.10;99.90;;;;;;6271633;28;20423;-84
2023/11/05 06:28:53;;;;;;;26.38;12.30;;;9.10;99.90;;;;;;6273567;28;20052;-88
2023/11/05 06:31:55;;;;;;;25.95;11.95;;;9.10;99.90;;;;;;6272745;28;20467;-85
2023/11/05 06:34:57;;;;;;;25.95;11.68;;;9.20;99.90;;;;;;6270529;28;20049;-85
2023/11/05 06:38:02;;;;;;;24.48;11.60;;;9.10;99.90;;;;;;6253432;28;20080;-85
2023/11/05 06:41:04;;;;;;;23.17;11.55;;;9.10;99.90;;;;;;6270983;28;20061;-85
2023/11/05 06:44:06;;;;;;;23.83;11.98;;;9.00;99.90;;;;;;6266361;28;20045;-83
2023/11/05 06:47:08;;;;;;;20.92;11.68;;;9.00;99.90;;;;;;6252112;28;20052;-84
2023/11/05 06:50:09;;;;;;;21.40;10.23;;;9.00;99.90;;;;;;6252645;28;20060;-85
2023/11/05 06:53:11;;;;;;;21.27;9.95;;;9.20;99.90;;;;;;6255088;28;20057;-84
2023/11/05 06:56:13;;;;;;;18.70;9.45;;;8.90;99.90;;;;;;6254845;28;20057;-85
2023/11/05 06:59:14;;;;;;;19.38;10.10;;;9.00;99.90;;;;;;6255201;28;20048;-83
2023/11/05 07:02:16;;;;;;;19.48;8.85;;;8.90;99.90;;;;;;6252681;28;20646;-85
2023/11/05 07:05:18;;;;;;;15.95;9.32;;;8.90;99.90;;;;;;6269512;28;20052;-84
2023/11/05 07:08:20;;;;;;;17.85;9.30;;;8.90;99.90;;;;;;6271320;28;20071;-85
2023/11/05 07:11:21;;;;;;;18.48;8.80;;;8.90;99.90;;;;;;6253030;28;20041;-85
2023/11/05 07:14:23;;;;;;;19.08;8.40;;;8.90;99.90;;;;;;6252296;28;20049;-85
2023/11/05 07:17:25;;;;;;;15.20;7.95;;;8.90;99.90;;;;;;6270290;28;20052;-85
2023/11/05 07:20:26;;;;;;;14.15;8.15;;;8.90;99.90;;;;;;6253374;28;20048;-85
2023/11/05 07:23:28;;;;;;;13.23;7.32;;;9.00;99.90;;;;;;6270643;28;20049;-85
2023/11/05 07:26:30;;;;;;;14.10;7.25;;;9.00;99.90;;;;;;6252585;28;20507;-86
2023/11/05 07:29:32;;;;;;;14.57;7.03;;;9.00;99.90;;;;;;6268061;28;20080;-84
2023/11/05 07:32:33;;;;;;;12.65;6.65;;;9.00;99.90;;;;;;6270521;28;20059;-85
2023/11/05 07:35:35;;;;;;;14.23;6.90;;;9.10;99.90;;;;;;6269999;28;20057;-84
2023/11/05 07:38:36;;;;;;;13.50;6.10;;;9.10;99.90;;;;;;6270514;28;20682;-85
2023/11/05 07:41:38;;;;;;;13.20;5.75;;;9.20;99.90;;;;;;6250991;28;20059;-84
2023/11/05 07:44:40;;;;;;;12.25;5.20;;;9.30;99.90;;;;;;6269897;28;20052;-86
2023/11/05 07:47:41;;;;;;;13.40;5.88;;;9.30;99.90;;;;;;6270748;28;20059;-87
2023/11/05 07:50:44;;;;;;;10.45;5.03;;;9.30;99.90;;;;;;6271348;28;20056;-86
2023/11/05 07:53:45;;;;;;;9.80;5.00;;;9.30;99.90;;;;;;6253428;28;20049;-85
2023/11/05 07:56:52;;;;;;;12.07;5.20;;;9.30;99.90;;;;;;6270343;28;20065;-85
2023/11/05 07:59:54;;;;;;;11.60;4.82;;;9.40;99.90;;;;;;6276884;28;20053;-85
2023/11/05 08:02:55;;;;;;;8.07;4.20;;;9.30;99.90;;;;;;6268282;28;20060;-86
2023/11/05 08:05:57;;;;;;;8.98;4.07;;;9.30;99.90;;;;;;6280541;28;20092;-82
2023/11/05 08:08:59;;;;;;;9.82;4.10;;;9.30;99.90;;;;;;6289886;28;20037;-85
2023/11/05 08:12:02;;;;;;;7.95;3.78;;;9.30;99.90;;;;;;6274385;28;20053;-86
2023/11/05 08:15:05;;;;;;;8.73;3.90;;;9.20;99.90;;;;;;6268037;28;20068;-82
2023/11/05 08:18:11;;;;;;;8.75;3.50;;;9.10;99.90;;;;;;6272292;28;20065;-84
2023/11/05 08:21:13;;;;;;;8.73;3.38;;;9.00;99.90;;;;;;6296172;28;20057;-84
2023/11/05 08:24:14;;;;;;;7.60;3.38;;;9.10;99.90;;;;;;6277469;28;20057;-83
2023/11/05 08:27:16;;;;;;;6.43;2.90;;;9.20;99.90;;;;;;6275212;28;20049;-83
2023/11/05 08:30:17;;;;;;;7.07;2.80;;;9.30;99.90;;;;;;6264507;28;20424;-85
2023/11/05 08:33:19;;;;;;;5.68;2.10;;;9.40;99.90;;;;;;6261393;28;20507;-84
2023/11/05 08:36:21;;;;;;;5.05;2.05;;;9.60;99.90;;;;;;6264284;28;20057;-85
2023/11/05 08:39:22;;;;;;;5.40;2.20;;;9.70;99.90;;;;;;6281723;28;20049;-84
2023/11/05 08:42:24;;;;;;;4.70;2.20;;;9.90;99.40;;;;;;6276022;28;20052;-84
2023/11/05 08:45:26;;;;;;;5.40;2.10;;;10.00;98.90;;;;;;6257255;28;20827;-83
2023/11/05 08:48:34;;;;;;;4.63;1.90;;;10.20;97.70;;;;;;6265692;28;20045;-88
2023/11/05 08:51:36;;;;;;;4.05;1.80;;;10.10;96.90;;;;;;6260230;28;20103;-90
2023/11/05 08:54:38;;;;;;;7.50;2.45;;;10.20;97.10;;;;;;6277374;28;20060;-90
2023/11/05 08:57:39;;;;;;;4.95;1.50;;;10.20;97.70;;;;;;6268463;28;20076;-87
2023/11/05 09:00:41;;;;;;;3.47;1.35;;;10.60;98.70;;;;;;6277205;28;20052;-89
2023/11/05 09:03:43;;;;;;;3.42;1.33;;;11.20;95.80;;;;;;6263136;28;20041;-90
2023/11/05 09:06:45;;;;;;;4.22;1.40;;;11.20;92.00;;;;;;6258492;28;20053;-85
2023/11/05 09:09:46;;;;;;;3.45;1.30;;;11.30;91.80;;;;;;6274813;28;20064;-86
2023/11/05 09:12:51;;;;;;;4.30;1.30;;;11.60;91.50;;;;;;6259935;28;20052;-85
2023/11/05 09:15:52;;;;;;;4.47;1.30;;;12.30;91.00;;;;;;6252253;28;20103;-89
2023/11/05 09:18:55;;;;;;;4.00;1.23;;;12.20;88.20;;;;;;6255423;28;20073;-90
2023/11/05 09:21:57;;;;;;;4.35;1.30;;;12.30;88.30;;;;;;6278412;28;20049;-91
2023/11/05 09:25:03;;;;;;;4.10;1.48;;;11.90;88.10;;;;;;6261575;28;20080;-89
2023/11/05 09:28:05;;;;;;;4.80;1.05;;;11.50;91.10;;;;;;6255829;28;20469;-91
2023/11/05 09:31:07;;;;;;;2.33;1.00;;;11.40;91.50;;;;;;6276799;28;20057;-91
2023/11/05 09:34:09;;;;;;;3.25;1.10;;;11.40;91.50;;;;;;6235715;28;20046;-89
2023/11/05 09:37:10;;;;;;;2.70;1.10;;;11.50;90.70;;;;;;6275850;28;20052;-90
2023/11/05 09:40:16;;;;;;;3.63;1.17;;;11.60;88.60;;;;;;6254011;28;20511;-90
2023/11/05 09:43:18;;;;;;;4.13;1.02;;;11.30;87.70;;;;;;6273001;28;20049;-90
2023/11/05 09:46:20;;;;;;;7.55;1.17;;;11.20;92.10;;;;;;6280215;28;20091;-91
2023/11/05 09:49:22;;;;;;;6.25;1.20;;;11.40;90.60;;;;;;6259319;28;20458;-90
2023/11/05 09:52:23;;;;;;;4.88;0.95;;;11.40;89.40;;;;;;6280338;28;20151;-90
2023/11/05 09:55:26;;;;;;;3.45;1.10;;;11.60;92.80;;;;;;6277760;28;20045;-89
2023/11/05 09:58:29;;;;;;;2.90;1.00;;;12.70;90.80;;;;;;6274840;28;20110;-90
2023/11/05 10:01:35;;;;;;;4.13;1.00;;;13.30;71.70;;;;;;6258535;28;20051;-91
2023/11/05 10:04:37;;;;;;;3.97;1.20;;;13.50;54.60;;;;;;6261131;28;20053;-83
2023/11/05 10:07:39;;;;;;;2.53;0.98;;;14.20;71.20;;;;;;6256496;28;20055;-86
2023/11/05 10:10:42;;;;;;;3.63;1.00;;;14.90;34.70;;;;;;6274055;28;20055;-91
2023/11/05 10:13:44;;;;;;;3.13;1.23;;;15.40;49.80;;;;;;6275589;28;20103;-91
2023/11/05 10:16:46;;;;;;;2.72;0.90;;;15.60;1.00;;;;;;6267226;28;20059;-90
2023/11/05 10:19:48;;;;;;;2.80;1.00;;;15.80;1.00;;;;;;6268255;28;20183;-92
2023/11/05 10:22:52;;;;;;;3.65;0.93;;;16.00;1.00;;;;;;6277854;28;20420;-90
2023/11/05 10:25:54;;;;;;;3.30;1.10;;;16.10;1.00;;;;;;6261417;28;20187;-92
2023/11/05 10:28:56;;;;;;;3.20;1.00;;;16.40;1.00;;;;;;6259713;28;20485;-90
2023/11/05 10:31:57;;;;;;;2.83;0.90;;;16.40;1.00;;;;;;6278403;28;20055;-91
2023/11/05 10:34:59;;;;;;;3.53;0.98;;;16.30;1.00;;;;;;6279612;28;20135;-91
2023/11/05 10:38:02;;;;;;;3.50;1.10;;;16.10;1.00;;;;;;6280373;28;20075;-91
2023/11/05 10:41:05;;;;;;;3.78;0.90;;;16.20;1.00;;;;;;6268251;28;20076;-91
2023/11/05 10:44:06;;;;;;;2.67;0.88;;;16.40;1.00;;;;;;6260325;28;20110;-91
2023/11/05 10:47:08;;;;;;;5.38;1.10;;;16.10;1.00;;;;;;6265082;28;20063;-89
2023/11/05 10:50:10;;;;;;;2.80;0.93;;;16.00;1.00;;;;;;6291849;28;20048;-90
2023/11/05 10:53:12;;;;;;;2.20;1.00;;;16.30;1.00;;;;;;6277078;28;20065;-92
2023/11/05 10:56:13;;;;;;;4.15;1.63;;;16.80;1.00;;;;;;6297492;28;20067;-91
2023/11/05 10:59:15;;;;;;;3.17;0.90;;;17.10;1.00;;;;;;6299000;28;20032;-90
2023/11/05 11:02:17;;;;;;;3.97;1.10;;;17.10;1.00;;;;;;6301486;28;20049;-90
2023/11/05 11:05:18;;;;;;;3.55;1.10;;;17.40;1.00;;;;;;6301146;28;20049;-90
2023/11/05 11:08:20;;;;;;;3.28;1.05;;;17.00;1.00;;;;;;6269891;28;20488;-89
2023/11/05 11:11:22;;;;;;;2.50;1.00;;;16.40;1.00;;;;;;6277913;28;20053;-89
2023/11/05 11:14:24;;;;;;;4.45;0.90;;;15.70;1.00;;;;;;6275087;28;20052;-90
2023/11/05 11:17:25;;;;;;;4.15;1.00;;;15.70;1.00;;;;;;6259812;28;20064;-89
2023/11/05 11:20:27;;;;;;;3.13;0.90;;;16.00;1.00;;;;;;6275207;28;20049;-88
2023/11/05 11:23:30;;;;;;;4.50;1.00;;;16.80;1.00;;;;;;6276090;28;20064;-91
2023/11/05 11:26:36;;;;;;;2.92;1.20;;;16.90;1.00;;;;;;6255697;28;20457;-89
2023/11/05 11:29:37;;;;;;;2.50;0.88;;;17.10;1.00;;;;;;6265621;28;20060;-88
2023/11/05 11:32:39;;;;;;;3.00;1.00;;;16.60;1.00;;;;;;6277960;28;20052;-89
2023/11/05 11:35:41;;;;;;;3.70;0.90;;;16.80;1.00;;;;;;6275930;28;20056;-92
2023/11/05 11:38:43;;;;;;;4.00;0.93;;;16.70;1.00;;;;;;6277056;28;20488;-90
2023/11/05 11:41:48;;;;;;;3.33;0.80;;;16.20;1.00;;;;;;6277696;28;20068;-92
2023/11/05 11:44:50;;;;;;;1.92;0.70;;;15.30;1.00;;;;;;6261842;28;20049;-92
2023/11/05 11:47:52;;;;;;;3.15;1.00;;;14.90;1.00;;;;;;6263359;28;20049;-92
2023/11/05 11:50:54;;;;;;;2.50;0.88;;;15.00;1.00;;;;;;6278328;28;20049;-89
2023/11/05 11:53:55;;;;;;;4.57;1.10;;;15.80;1.00;;;;;;6273398;28;20054;-93
2023/11/05 11:56:57;;;;;;;2.33;0.75;;;15.40;1.00;;;;;;6261972;28;20120;-85
2023/11/05 11:59:59;;;;;;;2.63;0.80;;;15.70;1.00;;;;;;6274635;28;20045;-89
2023/11/05 12:03:01;;;;;;;1.85;0.80;;;15.20;1.00;;;;;;6278666;28;20060;-93
2023/11/05 12:06:03;;;;;;;5.38;1.13;;;15.20;1.00;;;;;;6276550;28;20520;-84
2023/11/05 12:09:05;;;;;;;3.20;0.80;;;15.90;1.00;;;;;;6278007;28;20053;-91
2023/11/05 12:12:08;;;;;;;2.25;0.90;;;16.30;1.00;;;;;;6263833;28;20077;-90
2023/11/05 12:15:10;;;;;;;6.07;0.98;;;15.90;1.00;;;;;;6257573;28;20404;-88
2023/11/05 12:18:12;;;;;;;4.07;0.90;;;16.40;1.00;;;;;;6275317;28;20053;-91
2023/11/05 12:21:16;;;;;;;3.97;1.08;;;17.40;1.00;;;;;;6255794;28;20135;-92
2023/11/05 12:24:17;;;;;;;2.13;0.75;;;17.40;1.00;;;;;;6253202;28;20190;-89
2023/11/05 12:27:19;;;;;;;2.78;0.90;;;16.40;1.00;;;;;;6252081;28;20056;-88
2023/11/05 12:30:21;;;;;;;2.22;0.90;;;16.70;1.00;;;;;;6267772;28;20060;-89
2023/11/05 12:33:26;;;;;;;1.85;0.70;;;17.20;1.00;;;;;;6274679;28;20056;-89
2023/11/05 12:36:27;;;;;;;4.13;0.85;;;16.40;1.00;;;;;;6255411;28;20053;-89
2023/11/05 12:39:29;;;;;;;3.70;1.02;;;16.10;1.00;;;;;;6256626;28;20049;-90
2023/11/05 12:42:36;;;;;;;2.30;0.88;;;16.00;1.00;;;;;;6255614;28;20045;-84
2023/11/05 12:45:38;;;;;;;4.00;1.02;;;16.20;1.00;;;;;;6253450;28;20044;-90
2023/11/05 12:48:39;;;;;;;3.80;1.00;;;16.70;1.00;;;;;;6255503;28;20049;-92
2023/11/05 12:51:41;;;;;;;4.40;1.00;;;17.30;1.00;;;;;;6255982;28;20040;-90
2023/11/05 12:54:43;;;;;;;3.78;0.90;;;16.30;1.00;;;;;;6257392;28;20052;-87
2023/11/05 12:57:44;;;;;;;3.97;0.95;;;15.80;1.00;;;;;;6271946;28;20061;-84
2023/11/05 13:00:46;;;;;;;2.40;1.00;;;15.50;1.00;;;;;;6232022;28;20067;-84
2023/11/05 13:03:47;;;;;;;3.58;1.20;;;15.50;1.00;;;;;;6246753;28;20061;-82
2023/11/05 13:06:50;;;;;;;3.42;1.13;;;15.40;1.00;;;;;;6271814;28;20202;-85
2023/11/05 13:09:52;;;;;;;3.20;0.75;;;15.10;1.00;;;;;;6271937;28;20049;-87
2023/11/05 13:12:53;;;;;;;3.17;0.88;;;14.60;1.00;;;;;;6254961;28;20053;-85
2023/11/05 13:15:55;;;;;;;3.35;0.70;;;14.20;1.00;;;;;;6271863;28;20048;-89
2023/11/05 13:18:57;;;;;;;3.35;0.90;;;14.20;1.00;;;;;;6246981;28;20052;-81
2023/11/05 13:21:58;;;;;;;2.22;0.88;;;14.10;1.00;;;;;;6270955;28;20053;-85
2023/11/05 13:25:00;;;;;;;3.08;0.90;;;14.00;1.00;;;;;;6273252;28;20049;-87
2023/11/05 13:28:02;;;;;;;4.38;1.00;;;14.10;1.00;;;;;;6253074;28;20049;-86
2023/11/05 13:31:04;;;;;;;4.47;1.20;;;14.20;1.00;;;;;;6252404;28;20682;-84
2023/11/05 13:34:06;;;;;;;4.57;1.30;;;14.10;1.00;;;;;;6251768;28;20045;-90
2023/11/05 13:37:07;;;;;;;3.28;1.02;;;13.90;1.00;;;;;;6272412;28;20084;-84
2023/11/05 13:40:09;;;;;;;3.88;1.17;;;13.60;1.00;;;;;;6256935;28;20045;-86
2023/11/05 13:43:11;;;;;;;3.20;0.90;;;13.50;1.00;;;;;;6251439;28;20044;-88
2023/11/05 13:46:12;;;;;;;6.38;1.23;;;13.40;1.00;;;;;;6256839;28;20068;-87
2023/11/05 13:49:14;;;;;;;3.70;1.00;;;13.40;1.00;;;;;;6253886;28;20056;-84
2023/11/05 13:52:20;;;;;;;4.75;1.33;;;13.30;1.00;;;;;;6267384;28;20060;-89
2023/11/05 13:55:21;;;;;;;3.58;1.00;;;13.30;1.00;;;;;;6269342;28;20064;-85
2023/11/05 13:58:23;;;;;;;4.82;1.25;;;13.90;1.00;;;;;;6249741;28;20283;-89
2023/11/05 14:01:27;;;;;;;2.17;1.00;;;15.20;1.00;;;;;;6271878;28;20141;-88
2023/11/05 14:04:29;;;;;;;4.25;1.20;;;15.80;1.00;;;;;;6229841;28;20049;-89
2023/11/05 14:07:32;;;;;;;5.57;1.13;;;16.00;1.00;;;;;;6271347;28;20126;-86
2023/11/05 14:10:34;;;;;;;5.63;1.17;;;16.30;1.00;;;;;;6271176;28;20420;-84
2023/11/05 14:13:36;;;;;;;2.42;0.82;;;16.10;1.00;;;;;;6251428;28;20480;-84
2023/11/05 14:16:38;;;;;;;2.35;1.05;;;15.40;1.00;;;;;;6253385;28;20060;-84
2023/11/05 14:19:39;;;;;;;6.15;0.93;;;14.60;1.00;;;;;;6271740;28;20049;-89
2023/11/05 14:22:41;;;;;;;5.00;1.23;;;14.20;1.00;;;;;;6256772;28;20069;-91
2023/11/05 14:25:43;;;;;;;4.85;1.13;;;14.20;1.00;;;;;;6254694;28;20057;-87
2023/11/05 14:28:45;;;;;;;4.95;1.13;;;14.60;1.00;;;;;;6273979;28;20080;-86
2023/11/05 14:31:47;;;;;;;4.50;0.82;;;14.50;1.00;;;;;;6261819;28;20138;-85
2023/11/05 14:34:48;;;;;;;5.13;1.50;;;14.20;1.00;;;;;;6253452;28;20052;-87
2023/11/05 14:37:50;;;;;;;4.45;1.20;;;13.80;1.00;;;;;;6252346;28;20447;-88
2023/11/05 14:40:52;;;;;;;3.80;1.17;;;13.60;1.00;;;;;;6271086;28;20044;-88
2023/11/05 14:43:54;;;;;;;6.72;2.20;;;13.40;1.00;;;;;;6251317;28;20110;-87
2023/11/05 14:46:57;;;;;;;7.75;1.58;;;13.30;1.00;;;;;;6252923;28;20056;-87
2023/11/05 14:49:59;;;;;;;5.38;1.30;;;13.10;1.00;;;;;;6253519;28;20053;-90
2023/11/05 14:53:02;;;;;;;4.72;1.40;;;13.00;1.00;;;;;;6253555;28;20160;-88
2023/11/05 14:56:04;;;;;;;6.60;1.48;;;12.80;1.00;;;;;;6252095;28;20068;-89
2023/11/05 14:59:07;;;;;;;6.30;1.75;;;12.60;1.00;;;;;;6252851;28;20060;-90
2023/11/05 15:02:08;;;;;;;6.60;1.70;;;12.40;1.00;;;;;;6253941;28;20067;-91
2023/11/05 15:05:10;;;;;;;5.35;1.63;;;12.40;1.00;;;;;;6254496;28;20057;-90
2023/11/05 15:08:12;;;;;;;6.68;1.60;;;12.50;2.40;;;;;;6272566;28;20064;-86
2023/11/05 15:11:14;;;;;;;6.80;1.77;;;12.60;15.30;;;;;;6255928;28;20045;-89
2023/11/05 15:14:15;;;;;;;8.07;1.50;;;12.60;37.60;;;;;;6254034;28;20064;-88
2023/11/05 15:17:17;;;;;;;7.10;1.50;;;12.70;34.80;;;;;;6255796;28;20161;-85
2023/11/05 15:20:19;;;;;;;6.30;1.58;;;12.60;34.70;;;;;;6253106;28;20060;-88
2023/11/05 15:23:21;;;;;;;6.28;1.67;;;12.50;42.10;;;;;;6254242;28;20049;-87
2023/11/05 15:26:23;;;;;;;6.82;2.00;;;12.30;42.80;;;;;;6254303;28;20115;-88
2023/11/05 15:29:26;;;;;;;7.93;1.95;;;12.20;56.10;;;;;;6268096;28;20053;-86
2023/11/05 15:32:27;;;;;;;6.75;1.55;;;12.10;61.70;;;;;;6251379;28;20061;-84
2023/11/05 15:35:29;;;;;;;5.70;1.67;;;12.00;64.00;;;;;;6249170;28;20907;-88
2023/11/05 15:38:32;;;;;;;8.52;1.52;;;12.00;61.40;;;;;;6254525;28;20404;-88
2023/11/05 15:41:33;;;;;;;10.55;1.52;;;11.90;58.90;;;;;;6271274;28;20061;-87
2023/11/05 15:44:36;;;;;;;11.35;1.90;;;11.90;59.50;;;;;;6253259;28;20792;-86